Overseas Martinez — WPAJ — position and weather

sailwx.info

Track history (hours):
 
Tides and Currents Weather Stations Pressure Air Temp Water Temp Dewpoint Dewpoint Depression Visibility Wind Speed Wind Dir Waves Ship Positions

Overseas Martinez

Owner: ASC Leasing VIII, Inc., Philadelphia, PA. More information available from US FCC via Universal Licensing System and Coast Guard Vessel Documentation Center.

Last reported at 2017-Sep-22 14:00 UTC. Time now 2017-Sep-23 16:32 UTC.
Position N 55°42' W 141°42'.

Length 182 m; draft 9.6 m.

Type: Tanker. MMSI: 366508000.

Wind from 270 at 20 knots

Barometer 1013.0 mb
Air temperature 12.0 ° C
Visibility: greater than 5.4 NM

Date/timePositionNaut miles runAvg speedWind from/ knotsBaromVisibWave heightAir tempDewpointWater temp
2017-Sep-22 14:00N 55°42' W 141°42'21411.9 270 / 201013.0 5.4 12.0
2017-Sep-21 20:00N 52°42' W 138°24'7212.1 290 / 181024.0 12.0 13.0
2017-Sep-21 14:00N 51°42' W 137°18'18511.6 320 / 281025.0 12.210.1
2017-Sep-20 22:00N 49°06' W 134°42'79 9.9 350 / 371018.0 16.0 15.0
2017-Sep-20 14:00N 48°00' W 133°36'209 9.1 330 / 371015.0 5.4 11.1 8.9
2017-Sep-19 15:00N 45°06' W 130°48'121 7.1 290 / 261014.0 5.4
2017-Sep-18 22:00N 43°24' W 129°18'34810.8 320 / 381014.010.8 16.0 18.0
2017-Sep-17 13:45N 38°31' W 125°09'610.8
2017-Sep-17 13:13N 38°26' W 125°06'410.7
2017-Sep-17 12:48N 38°22' W 125°03'610.4
2017-Sep-17 12:16N 38°17' W 124°59'310.4
2017-Sep-17 12:00N 38°15' W 124°57'510.6
2017-Sep-17 11:30N 38°11' W 124°54'1110.7
2017-Sep-17 10:31N 38°01' W 124°47'210.7
2017-Sep-17 10:22N 38°00' W 124°45'1010.6
2017-Sep-17 09:27N 37°52' W 124°39'510.7
2017-Sep-17 09:00N 37°48' W 124°36'510.5
2017-Sep-17 08:30N 37°43' W 124°33'610.6
2017-Sep-17 07:59N 37°38' W 124°29'510.6
2017-Sep-17 07:30N 37°34' W 124°26'510.6
2017-Sep-17 07:00N 37°30' W 124°22'510.7
2017-Sep-17 06:30N 37°25' W 124°19'611.0
2017-Sep-17 06:00N 37°20' W 124°15'2411.1
2017-Sep-17 03:53N 36°60' W 124°00'1311.2
2017-Sep-17 02:41N 36°49' W 123°51'311.1
2017-Sep-17 02:25N 36°46' W 123°49'712.0
2017-Sep-17 01:50N 36°40' W 123°45'513.7
2017-Sep-17 01:27N 36°36' W 123°41'1013.6
2017-Sep-17 00:45N 36°28' W 123°35'1211.9
2017-Sep-16 23:44N 36°17' W 123°27'311.3
2017-Sep-16 23:30N 36°15' W 123°26'611.2
2017-Sep-16 23:00N 36°10' W 123°22'611.2
2017-Sep-16 22:27N 36°05' W 123°18'611.1
2017-Sep-16 21:57N 36°00' W 123°15'511.1
2017-Sep-16 21:30N 35°56' W 123°11'711.3
2017-Sep-16 20:53N 35°50' W 123°07'511.5
2017-Sep-16 20:29N 35°46' W 123°04'611.7
2017-Sep-16 20:00N 35°41' W 123°00'612.1
2017-Sep-16 19:30N 35°36' W 122°57'612.2
2017-Sep-16 19:00N 35°31' W 122°53'712.2
2017-Sep-16 18:27N 35°25' W 122°48'8611.9
2017-Sep-16 11:16N 34°12' W 121°54'311.9
2017-Sep-16 11:00N 34°09' W 121°53'611.8
2017-Sep-16 10:30N 34°04' W 121°49'612.0
2017-Sep-16 10:00N 33°59' W 121°45'612.1
2017-Sep-16 09:30N 33°53' W 121°41'611.9
2017-Sep-16 09:00N 33°48' W 121°38'611.8
2017-Sep-16 08:29N 33°43' W 121°34'510.2
2017-Sep-16 08:00N 33°41' W 121°28'611.8
2017-Sep-16 07:30N 33°41' W 121°21'612.0
2017-Sep-16 06:59N 33°41' W 121°14'612.0
2017-Sep-16 06:30N 33°41' W 121°07'611.6
2017-Sep-16 06:00N 33°41' W 120°60'611.4
2017-Sep-16 05:30N 33°41' W 120°53'611.6
2017-Sep-16 05:00N 33°41' W 120°46'611.5
2017-Sep-16 04:30N 33°41' W 120°39'611.2
2017-Sep-16 04:00N 33°41' W 120°32'510.8
2017-Sep-16 03:30N 33°41' W 120°26'510.3
2017-Sep-16 03:00N 33°41' W 120°20'510.6
2017-Sep-16 02:30N 33°41' W 120°13'511.0
2017-Sep-16 02:00N 33°41' W 120°07'510.9
2017-Sep-16 01:30N 33°41' W 120°00'611.0
2017-Sep-16 00:59N 33°41' W 119°53'511.3
2017-Sep-16 00:30N 33°41' W 119°47'611.5
2017-Sep-16 00:00N 33°41' W 119°40'611.6
2017-Sep-15 23:28N 33°41' W 119°32'511.7
2017-Sep-15 23:00N 33°41' W 119°26'611.7
2017-Sep-15 22:28N 33°41' W 119°18'611.9
2017-Sep-15 22:00N 33°41' W 119°12'611.5
2017-Sep-15 21:30N 33°41' W 119°05'611.8
2017-Sep-15 21:00N 33°41' W 118°58'611.7
2017-Sep-15 20:30N 33°40' W 118°51'611.9
2017-Sep-15 20:00N 33°40' W 118°43'611.8
2017-Sep-15 19:30N 33°39' W 118°36'611.7
2017-Sep-15 19:00N 33°40' W 118°30'611.4
2017-Sep-15 18:30N 33°39' W 118°23'611.4
2017-Sep-15 18:00N 33°38' W 118°16'510.2
2017-Sep-15 17:29N 33°42' W 118°11'3 6.6
2017-Sep-15 16:59N 33°45' W 118°13'1 2.3
2017-Sep-15 16:27N 33°46' W 118°13'0 0.1
2017-Sep-15 09:53N 33°46' W 118°13'0 0.0
2017-Sep-15 07:47N 33°46' W 118°13'0 0.1
2017-Sep-15 07:23N 33°46' W 118°13'0 0.0
2017-Sep-15 05:35N 33°46' W 118°13'0 0.0
2017-Sep-15 05:05N 33°46' W 118°13'0 0.0
2017-Sep-14 23:59N 33°46' W 118°13'0 0.0
2017-Sep-14 23:29N 33°46' W 118°13'0 0.0
2017-Sep-14 22:53N 33°46' W 118°13'0 0.0
2017-Sep-14 21:47N 33°46' W 118°13'0 0.0
2017-Sep-14 21:11N 33°46' W 118°13'0 0.0
2017-Sep-14 20:59N 33°46' W 118°13'0 0.0
2017-Sep-14 20:29N 33°46' W 118°13'0 0.0
2017-Sep-14 19:59N 33°46' W 118°13'0 0.0
2017-Sep-14 19:29N 33°46' W 118°13'0 0.0
2017-Sep-14 18:05N 33°46' W 118°13'0 0.1
2017-Sep-14 17:59N 33°46' W 118°13'0 0.0
2017-Sep-14 17:23N 33°46' W 118°13'0 0.0
2017-Sep-14 05:29N 33°46' W 118°13'0 0.0
2017-Sep-14 04:17N 33°46' W 118°13'0 0.0
2017-Sep-14 03:23N 33°46' W 118°13'0 0.1
2017-Sep-14 02:11N 33°47' W 118°13'0 0.0
2017-Sep-14 01:59N 33°47' W 118°13'0 0.0
2017-Sep-14 01:29N 33°47' W 118°13'0 0.0
2017-Sep-14 00:59N 33°47' W 118°13'0 0.0
2017-Sep-14 00:23N 33°47' W 118°13'0 0.0
2017-Sep-13 23:47N 33°47' W 118°13'0 0.0
2017-Sep-13 23:11N 33°47' W 118°13'0 0.0
2017-Sep-13 22:53N 33°47' W 118°13'0 0.0
2017-Sep-13 22:29N 33°47' W 118°13'0 0.0
2017-Sep-13 21:59N 33°47' W 118°13'0 0.0
2017-Sep-13 21:11N 33°47' W 118°13'0 0.0
2017-Sep-13 20:59N 33°47' W 118°13'0 0.0
2017-Sep-13 20:17N 33°47' W 118°13'0 0.0
2017-Sep-13 19:59N 33°47' W 118°13'0 0.0
2017-Sep-13 19:29N 33°47' W 118°13'0 0.0
2017-Sep-13 18:53N 33°47' W 118°13'0 0.0
2017-Sep-13 18:29N 33°47' W 118°13'0 0.0
2017-Sep-13 17:59N 33°47' W 118°13'0 0.0
2017-Sep-13 12:59N 33°46' W 118°13'0 0.0
2017-Sep-13 12:29N 33°46' W 118°13'0 0.0
2017-Sep-13 11:05N 33°46' W 118°13'0 0.0
2017-Sep-13 09:53N 33°46' W 118°13'0 0.0
2017-Sep-13 09:29N 33°46' W 118°13'0 0.0
2017-Sep-13 08:59N 33°46' W 118°13'0 0.0
2017-Sep-13 08:05N 33°46' W 118°13'0 0.0
2017-Sep-13 07:59N 33°46' W 118°13'0 0.0
2017-Sep-13 07:29N 33°46' W 118°13'0 0.0
2017-Sep-13 06:53N 33°46' W 118°13'0 0.0
2017-Sep-13 05:23N 33°46' W 118°13'0 0.0
2017-Sep-13 04:56N 33°46' W 118°13'0 0.0
2017-Sep-13 04:29N 33°46' W 118°13'0 0.0
2017-Sep-13 03:59N 33°46' W 118°13'0 0.0
2017-Sep-13 03:29N 33°46' W 118°13'0 0.0
2017-Sep-13 02:59N 33°46' W 118°13'0 0.0
2017-Sep-13 02:29N 33°46' W 118°13'0 0.0
2017-Sep-13 01:59N 33°46' W 118°13'0 0.0
2017-Sep-13 01:29N 33°46' W 118°13'0 0.0
2017-Sep-13 00:50N 33°46' W 118°13'0 0.0
2017-Sep-13 00:29N 33°46' W 118°13'0 0.0
2017-Sep-12 23:59N 33°46' W 118°13'0 0.0
2017-Sep-12 23:29N 33°46' W 118°13'0 0.0
2017-Sep-12 22:59N 33°46' W 118°13'0 0.0
2017-Sep-12 22:29N 33°46' W 118°13'0 0.0
2017-Sep-12 21:56N 33°46' W 118°13'0 0.0
2017-Sep-12 21:29N 33°46' W 118°13'0 0.0
2017-Sep-12 20:59N 33°46' W 118°13'0 0.0
2017-Sep-12 20:29N 33°46' W 118°13'0 0.0
2017-Sep-12 19:59N 33°46' W 118°13'0 0.0
2017-Sep-12 19:29N 33°46' W 118°13'0 0.0
2017-Sep-12 18:47N 33°46' W 118°13'0 0.0
2017-Sep-12 18:11N 33°46' W 118°13'0 0.0
2017-Sep-12 17:59N 33°46' W 118°13'0 0.0
2017-Sep-12 17:14N 33°46' W 118°13'0 0.0
2017-Sep-12 16:53N 33°46' W 118°13'0 0.0
2017-Sep-12 16:29N 33°46' W 118°13'0 0.1
2017-Sep-12 15:53N 33°46' W 118°13'0 0.1
2017-Sep-12 15:29N 33°46' W 118°13'0 0.0
2017-Sep-12 14:59N 33°46' W 118°13'  
Track history (hours):
 
Tides and Currents Weather Stations Pressure Air Temp Water Temp Dewpoint Dewpoint Depression Visibility Wind Speed Wind Dir Waves Ship Positions

Overseas Martinez

Owner: ASC Leasing VIII, Inc., Philadelphia, PA. More information available from US FCC via Universal Licensing System and Coast Guard Vessel Documentation Center.

Last reported at 2017-Sep-22 14:00 UTC. Time now 2017-Sep-23 16:32 UTC.
Position N 55°42' W 141°42'.

Length 182 m; draft 9.6 m.

Type: Tanker. MMSI: 366508000.

Wind from 270 at 20 knots

Barometer 1013.0 mb
Air temperature 12.0 ° C
Visibility: greater than 5.4 NM

Date/timePositionNaut miles runAvg speedWind from/ knotsBaromVisibWave heightAir tempDewpointWater temp
2017-Sep-22 14:00N 55°42' W 141°42'21411.9 270 / 201013.0 5.4 12.0
2017-Sep-21 20:00N 52°42' W 138°24'7212.1 290 / 181024.0 12.0 13.0
2017-Sep-21 14:00N 51°42' W 137°18'18511.6 320 / 281025.0 12.210.1
2017-Sep-20 22:00N 49°06' W 134°42'79 9.9 350 / 371018.0 16.0 15.0
2017-Sep-20 14:00N 48°00' W 133°36'209 9.1 330 / 371015.0 5.4 11.1 8.9
2017-Sep-19 15:00N 45°06' W 130°48'121 7.1 290 / 261014.0 5.4
2017-Sep-18 22:00N 43°24' W 129°18'34810.8 320 / 381014.010.8 16.0 18.0
2017-Sep-17 13:45N 38°31' W 125°09'610.8
2017-Sep-17 13:13N 38°26' W 125°06'410.7
2017-Sep-17 12:48N 38°22' W 125°03'610.4
2017-Sep-17 12:16N 38°17' W 124°59'310.4
2017-Sep-17 12:00N 38°15' W 124°57'510.6
2017-Sep-17 11:30N 38°11' W 124°54'1110.7
2017-Sep-17 10:31N 38°01' W 124°47'210.7
2017-Sep-17 10:22N 38°00' W 124°45'1010.6
2017-Sep-17 09:27N 37°52' W 124°39'510.7
2017-Sep-17 09:00N 37°48' W 124°36'510.5
2017-Sep-17 08:30N 37°43' W 124°33'610.6
2017-Sep-17 07:59N 37°38' W 124°29'510.6
2017-Sep-17 07:30N 37°34' W 124°26'510.6
2017-Sep-17 07:00N 37°30' W 124°22'510.7
2017-Sep-17 06:30N 37°25' W 124°19'611.0
2017-Sep-17 06:00N 37°20' W 124°15'2411.1
2017-Sep-17 03:53N 36°60' W 124°00'1311.2
2017-Sep-17 02:41N 36°49' W 123°51'311.1
2017-Sep-17 02:25N 36°46' W 123°49'712.0
2017-Sep-17 01:50N 36°40' W 123°45'513.7
2017-Sep-17 01:27N 36°36' W 123°41'1013.6
2017-Sep-17 00:45N 36°28' W 123°35'1211.9
2017-Sep-16 23:44N 36°17' W 123°27'311.3
2017-Sep-16 23:30N 36°15' W 123°26'611.2
2017-Sep-16 23:00N 36°10' W 123°22'611.2
2017-Sep-16 22:27N 36°05' W 123°18'611.1
2017-Sep-16 21:57N 36°00' W 123°15'511.1
2017-Sep-16 21:30N 35°56' W 123°11'711.3
2017-Sep-16 20:53N 35°50' W 123°07'511.5
2017-Sep-16 20:29N 35°46' W 123°04'611.7
2017-Sep-16 20:00N 35°41' W 123°00'612.1
2017-Sep-16 19:30N 35°36' W 122°57'612.2
2017-Sep-16 19:00N 35°31' W 122°53'712.2
2017-Sep-16 18:27N 35°25' W 122°48'8611.9
2017-Sep-16 11:16N 34°12' W 121°54'311.9
2017-Sep-16 11:00N 34°09' W 121°53'611.8
2017-Sep-16 10:30N 34°04' W 121°49'612.0
2017-Sep-16 10:00N 33°59' W 121°45'612.1
2017-Sep-16 09:30N 33°53' W 121°41'611.9
2017-Sep-16 09:00N 33°48' W 121°38'611.8
2017-Sep-16 08:29N 33°43' W 121°34'510.2
2017-Sep-16 08:00N 33°41' W 121°28'611.8
2017-Sep-16 07:30N 33°41' W 121°21'612.0
2017-Sep-16 06:59N 33°41' W 121°14'612.0
2017-Sep-16 06:30N 33°41' W 121°07'611.6
2017-Sep-16 06:00N 33°41' W 120°60'611.4
2017-Sep-16 05:30N 33°41' W 120°53'611.6
2017-Sep-16 05:00N 33°41' W 120°46'611.5
2017-Sep-16 04:30N 33°41' W 120°39'611.2
2017-Sep-16 04:00N 33°41' W 120°32'510.8
2017-Sep-16 03:30N 33°41' W 120°26'510.3
2017-Sep-16 03:00N 33°41' W 120°20'510.6
2017-Sep-16 02:30N 33°41' W 120°13'511.0
2017-Sep-16 02:00N 33°41' W 120°07'510.9
2017-Sep-16 01:30N 33°41' W 120°00'611.0
2017-Sep-16 00:59N 33°41' W 119°53'511.3
2017-Sep-16 00:30N 33°41' W 119°47'611.5
2017-Sep-16 00:00N 33°41' W 119°40'611.6
2017-Sep-15 23:28N 33°41' W 119°32'511.7
2017-Sep-15 23:00N 33°41' W 119°26'611.7
2017-Sep-15 22:28N 33°41' W 119°18'611.9
2017-Sep-15 22:00N 33°41' W 119°12'611.5
2017-Sep-15 21:30N 33°41' W 119°05'611.8
2017-Sep-15 21:00N 33°41' W 118°58'611.7
2017-Sep-15 20:30N 33°40' W 118°51'611.9
2017-Sep-15 20:00N 33°40' W 118°43'611.8
2017-Sep-15 19:30N 33°39' W 118°36'611.7
2017-Sep-15 19:00N 33°40' W 118°30'611.4
2017-Sep-15 18:30N 33°39' W 118°23'611.4
2017-Sep-15 18:00N 33°38' W 118°16'510.2
2017-Sep-15 17:29N 33°42' W 118°11'3 6.6
2017-Sep-15 16:59N 33°45' W 118°13'1 2.3
2017-Sep-15 16:27N 33°46' W 118°13'0 0.1
2017-Sep-15 09:53N 33°46' W 118°13'0 0.0
2017-Sep-15 07:47N 33°46' W 118°13'0 0.1
2017-Sep-15 07:23N 33°46' W 118°13'0 0.0
2017-Sep-15 05:35N 33°46' W 118°13'0 0.0
2017-Sep-15 05:05N 33°46' W 118°13'0 0.0
2017-Sep-14 23:59N 33°46' W 118°13'0 0.0
2017-Sep-14 23:29N 33°46' W 118°13'0 0.0
2017-Sep-14 22:53N 33°46' W 118°13'0 0.0
2017-Sep-14 21:47N 33°46' W 118°13'0 0.0
2017-Sep-14 21:11N 33°46' W 118°13'0 0.0
2017-Sep-14 20:59N 33°46' W 118°13'0 0.0
2017-Sep-14 20:29N 33°46' W 118°13'0 0.0
2017-Sep-14 19:59N 33°46' W 118°13'0 0.0
2017-Sep-14 19:29N 33°46' W 118°13'0 0.0
2017-Sep-14 18:05N 33°46' W 118°13'0 0.1
2017-Sep-14 17:59N 33°46' W 118°13'0 0.0
2017-Sep-14 17:23N 33°46' W 118°13'0 0.0
2017-Sep-14 05:29N 33°46' W 118°13'0 0.0
2017-Sep-14 04:17N 33°46' W 118°13'0 0.0
2017-Sep-14 03:23N 33°46' W 118°13'0 0.1
2017-Sep-14 02:11N 33°47' W 118°13'0 0.0
2017-Sep-14 01:59N 33°47' W 118°13'0 0.0
2017-Sep-14 01:29N 33°47' W 118°13'0 0.0
2017-Sep-14 00:59N 33°47' W 118°13'0 0.0
2017-Sep-14 00:23N 33°47' W 118°13'0 0.0
2017-Sep-13 23:47N 33°47' W 118°13'0 0.0
2017-Sep-13 23:11N 33°47' W 118°13'0 0.0
2017-Sep-13 22:53N 33°47' W 118°13'0 0.0
2017-Sep-13 22:29N 33°47' W 118°13'0 0.0
2017-Sep-13 21:59N 33°47' W 118°13'0 0.0
2017-Sep-13 21:11N 33°47' W 118°13'0 0.0
2017-Sep-13 20:59N 33°47' W 118°13'0 0.0
2017-Sep-13 20:17N 33°47' W 118°13'0 0.0
2017-Sep-13 19:59N 33°47' W 118°13'0 0.0
2017-Sep-13 19:29N 33°47' W 118°13'0 0.0
2017-Sep-13 18:53N 33°47' W 118°13'0 0.0
2017-Sep-13 18:29N 33°47' W 118°13'0 0.0
2017-Sep-13 17:59N 33°47' W 118°13'0 0.0
2017-Sep-13 12:59N 33°46' W 118°13'0 0.0
2017-Sep-13 12:29N 33°46' W 118°13'0 0.0
2017-Sep-13 11:05N 33°46' W 118°13'0 0.0
2017-Sep-13 09:53N 33°46' W 118°13'0 0.0
2017-Sep-13 09:29N 33°46' W 118°13'0 0.0
2017-Sep-13 08:59N 33°46' W 118°13'0 0.0
2017-Sep-13 08:05N 33°46' W 118°13'0 0.0
2017-Sep-13 07:59N 33°46' W 118°13'0 0.0
2017-Sep-13 07:29N 33°46' W 118°13'0 0.0
2017-Sep-13 06:53N 33°46' W 118°13'0 0.0
2017-Sep-13 05:23N 33°46' W 118°13'0 0.0
2017-Sep-13 04:56N 33°46' W 118°13'0 0.0
2017-Sep-13 04:29N 33°46' W 118°13'0 0.0
2017-Sep-13 03:59N 33°46' W 118°13'0 0.0
2017-Sep-13 03:29N 33°46' W 118°13'0 0.0
2017-Sep-13 02:59N 33°46' W 118°13'0 0.0
2017-Sep-13 02:29N 33°46' W 118°13'0 0.0
2017-Sep-13 01:59N 33°46' W 118°13'0 0.0
2017-Sep-13 01:29N 33°46' W 118°13'0 0.0
2017-Sep-13 00:50N 33°46' W 118°13'0 0.0
2017-Sep-13 00:29N 33°46' W 118°13'0 0.0
2017-Sep-12 23:59N 33°46' W 118°13'0 0.0
2017-Sep-12 23:29N 33°46' W 118°13'0 0.0
2017-Sep-12 22:59N 33°46' W 118°13'0 0.0
2017-Sep-12 22:29N 33°46' W 118°13'0 0.0
2017-Sep-12 21:56N 33°46' W 118°13'0 0.0
2017-Sep-12 21:29N 33°46' W 118°13'0 0.0
2017-Sep-12 20:59N 33°46' W 118°13'0 0.0
2017-Sep-12 20:29N 33°46' W 118°13'0 0.0
2017-Sep-12 19:59N 33°46' W 118°13'0 0.0
2017-Sep-12 19:29N 33°46' W 118°13'0 0.0
2017-Sep-12 18:47N 33°46' W 118°13'0 0.0
2017-Sep-12 18:11N 33°46' W 118°13'0 0.0
2017-Sep-12 17:59N 33°46' W 118°13'0 0.0
2017-Sep-12 17:14N 33°46' W 118°13'0 0.0
2017-Sep-12 16:53N 33°46' W 118°13'0 0.0
2017-Sep-12 16:29N 33°46' W 118°13'0 0.1
2017-Sep-12 15:53N 33°46' W 118°13'0 0.1
2017-Sep-12 15:29N 33°46' W 118°13'0 0.0
2017-Sep-12 14:59N 33°46' W 118°13'  

Dump ship's entire track history